Iron Springs, Arizona
Current Conditions -  °F | °C
As of 2:53 PM on Monday 22 Dec 2014 (Local Time) from KPRC Reporting Station
Clear Clear  
Wind Chill: 63°   Ceiling: Unl
Heat Index: 63°   Visibility: 10mi
Dew Point: 30°   Wind: 21mph
Humidity: 29%   Direction: 340°NNW
Pressure: 29.95"   Gusts: NA
Location:  34.58°N, 112.57°W
Report Text: KPRC 222153Z 34018KT 10SM CLR 17/M01 A2995 RMK AO2 SLP094 T01721011
Loading
Personal Weather Stations






























Interactive Weather Map New forecast layout! Learn more

10-Day Weather Forecast

Advertisements
Track Severe Weather on mobile